createdAt,value
2023-03-16T00:01:23.958Z,1.83
2023-03-16T00:04:26.654Z,1.65
2023-03-16T00:07:29.311Z,1.25
2023-03-16T00:10:31.972Z,1.33
2023-03-16T00:13:34.612Z,1.20
2023-03-16T00:16:37.165Z,1.13
2023-03-16T00:19:39.713Z,1.40
2023-03-16T00:22:42.284Z,1.00
2023-03-16T00:25:44.822Z,1.30
2023-03-16T00:28:47.397Z,1.55
2023-03-16T00:31:50.187Z,3.08
2023-03-16T00:34:54.026Z,3.10
2023-03-16T00:37:57.467Z,2.43
2023-03-16T00:41:04.105Z,2.10
2023-03-16T00:44:06.680Z,2.45
2023-03-16T00:47:14.596Z,2.60
2023-03-16T00:50:17.323Z,2.15
2023-03-16T00:53:20.004Z,2.17
2023-03-16T00:56:22.694Z,2.08
2023-03-16T00:59:26.355Z,2.30
2023-03-16T01:02:28.898Z,2.35
2023-03-16T01:05:33.535Z,2.43
2023-03-16T01:08:40.509Z,1.58
2023-03-16T01:11:43.327Z,1.92
2023-03-16T01:14:47.450Z,2.35
2023-03-16T01:17:50.004Z,2.13
2023-03-16T01:20:53.521Z,1.73
2023-03-16T01:23:56.786Z,1.80
2023-03-16T01:26:59.415Z,2.00
2023-03-16T01:30:02.559Z,1.90
2023-03-16T01:33:06.298Z,2.00
2023-03-16T01:36:11.836Z,3.15
2023-03-16T01:39:26.564Z,2.30
2023-03-16T01:42:29.800Z,2.23
2023-03-16T01:46:00.333Z,2.17
2023-03-16T01:49:13.521Z,1.80
2023-03-16T01:52:22.762Z,1.90
2023-03-16T01:55:25.219Z,1.73
2023-03-16T01:58:30.334Z,2.20
2023-03-16T02:01:33.473Z,2.45
2023-03-16T02:04:39.623Z,2.20
2023-03-16T02:07:49.465Z,2.90
2023-03-16T02:10:54.832Z,2.60
2023-03-16T02:14:05.302Z,2.05
2023-03-16T02:17:07.980Z,2.60
2023-03-16T02:20:36.292Z,2.20
2023-03-16T02:23:38.971Z,2.40
2023-03-16T02:26:48.756Z,2.60
2023-03-16T02:30:06.542Z,2.33
2023-03-16T02:33:19.800Z,2.30
2023-03-16T02:36:22.622Z,1.85
2023-03-16T02:39:25.676Z,2.22
2023-03-16T02:42:29.260Z,2.50
2023-03-16T02:45:44.723Z,2.30
2023-03-16T02:49:03.014Z,2.75
2023-03-16T02:52:07.527Z,1.92
2023-03-16T02:55:10.516Z,2.30
2023-03-16T02:58:14.925Z,2.47
2023-03-16T03:01:17.585Z,2.97
2023-03-16T03:04:23.517Z,2.53
2023-03-16T03:07:31.878Z,3.20
2023-03-16T03:10:38.860Z,2.40
2023-03-16T03:13:43.779Z,3.03
2023-03-16T03:16:52.266Z,2.80
2023-03-16T03:19:54.833Z,2.97
2023-03-16T03:22:57.683Z,3.28
2023-03-16T03:26:00.889Z,2.72
2023-03-16T03:29:04.777Z,3.42
2023-03-16T03:32:09.419Z,3.00
2023-03-16T03:35:14.237Z,2.80
2023-03-16T03:38:16.939Z,3.45
2023-03-16T03:41:22.537Z,3.42
2023-03-16T03:44:27.033Z,3.70
2023-03-16T03:47:30.987Z,3.22
2023-03-16T03:50:35.188Z,3.97
2023-03-16T03:53:57.158Z,3.65
2023-03-16T03:57:25.679Z,3.80
2023-03-16T04:00:28.446Z,4.05
2023-03-16T04:03:31.422Z,3.45
2023-03-16T04:06:34.024Z,4.33
2023-03-16T04:09:36.885Z,5.25
2023-03-16T04:12:40.189Z,3.65
2023-03-16T04:15:47.048Z,4.40
2023-03-16T04:18:57.255Z,4.10
2023-03-16T04:22:00.058Z,4.38
2023-03-16T04:25:05.297Z,5.03
2023-03-16T04:28:11.693Z,4.88
2023-03-16T04:31:15.954Z,4.30
2023-03-16T04:34:25.176Z,4.68
2023-03-16T04:37:31.511Z,4.57
2023-03-16T04:40:34.091Z,5.07
2023-03-16T04:43:46.718Z,4.85
2023-03-16T04:46:54.865Z,4.63
2023-03-16T04:50:01.450Z,5.47
2023-03-16T04:53:04.745Z,5.32
2023-03-16T04:56:08.696Z,5.28
2023-03-16T04:59:12.408Z,4.85
2023-03-16T05:02:33.064Z,5.22
2023-03-16T05:05:38.573Z,4.82
2023-03-16T05:08:41.311Z,6.00
2023-03-16T05:11:44.111Z,6.32
2023-03-16T05:14:48.301Z,5.93
2023-03-16T05:18:09.275Z,6.63
2023-03-16T05:21:12.870Z,6.35
2023-03-16T05:24:37.257Z,7.13
2023-03-16T05:27:41.808Z,6.57
2023-03-16T05:30:45.998Z,6.90
2023-03-16T05:33:54.248Z,6.32
2023-03-16T05:36:58.481Z,6.78
2023-03-16T05:40:01.647Z,6.07
2023-03-16T05:43:04.920Z,6.93
2023-03-16T05:46:11.790Z,7.35
2023-03-16T05:49:15.636Z,8.23
2023-03-16T05:52:18.302Z,7.82
2023-03-16T05:55:20.954Z,8.57
2023-03-16T05:58:33.990Z,12.07
2023-03-16T06:01:40.220Z,14.35
2023-03-16T06:04:43.655Z,13.98
2023-03-16T06:07:46.398Z,13.20
2023-03-16T06:10:51.072Z,14.63
2023-03-16T06:13:57.951Z,15.25
2023-03-16T06:17:00.913Z,11.93
2023-03-16T06:20:11.417Z,8.93
2023-03-16T06:23:16.244Z,9.75
2023-03-16T06:26:19.447Z,4.80
2023-03-16T06:29:23.629Z,2.85
2023-03-16T06:32:26.410Z,2.40
2023-03-16T06:35:30.241Z,2.95
2023-03-16T06:38:47.893Z,2.80
2023-03-16T06:42:23.879Z,1.70
2023-03-16T06:45:27.413Z,1.60
2023-03-16T06:48:31.871Z,2.15
2023-03-16T06:51:35.340Z,1.85
2023-03-16T06:54:38.426Z,1.70
2023-03-16T06:57:42.887Z,2.35
2023-03-16T07:00:49.080Z,1.73
2023-03-16T07:03:55.016Z,1.98
2023-03-16T07:07:03.896Z,2.40
2023-03-16T07:10:09.404Z,3.63
2023-03-16T07:13:12.993Z,3.38
2023-03-16T07:16:16.939Z,1.88
2023-03-16T07:19:21.186Z,2.08
2023-03-16T07:22:24.898Z,2.33
2023-03-16T07:25:28.767Z,1.90
2023-03-16T07:28:32.289Z,2.40
2023-03-16T07:31:37.026Z,2.30
2023-03-16T07:34:45.709Z,1.50
2023-03-16T07:37:49.446Z,1.20
2023-03-16T07:40:52.297Z,2.20
2023-03-16T07:43:58.507Z,1.52
2023-03-16T07:47:01.718Z,1.27
2023-03-16T07:50:06.885Z,2.13
2023-03-16T07:53:10.405Z,1.70
2023-03-16T07:56:15.783Z,1.90
2023-03-16T07:59:21.515Z,1.90
2023-03-16T08:02:25.805Z,2.15
2023-03-16T08:05:34.616Z,1.90
2023-03-16T08:08:43.250Z,1.80
2023-03-16T08:11:52.806Z,2.33
2023-03-16T08:14:55.393Z,2.05
2023-03-16T08:18:02.649Z,2.00
2023-03-16T08:21:06.800Z,2.35
2023-03-16T08:24:09.535Z,1.97
2023-03-16T08:27:13.574Z,1.93
2023-03-16T08:30:20.900Z,2.55
2023-03-16T08:33:31.708Z,1.58
2023-03-16T08:36:35.038Z,1.88
2023-03-16T08:39:42.266Z,2.63
2023-03-16T08:42:50.138Z,1.87
2023-03-16T08:45:56.033Z,2.22
2023-03-16T08:49:03.060Z,1.30
2023-03-16T08:52:10.485Z,2.30
2023-03-16T08:55:13.387Z,1.87
2023-03-16T08:58:16.028Z,2.50
2023-03-16T09:01:19.809Z,2.00
2023-03-16T09:04:25.030Z,1.83
2023-03-16T09:07:29.253Z,1.98
2023-03-16T09:10:33.187Z,1.47
2023-03-16T09:13:36.899Z,1.57
2023-03-16T09:16:39.637Z,1.88
2023-03-16T09:19:51.942Z,2.10
2023-03-16T09:22:57.113Z,2.20
2023-03-16T09:26:03.101Z,2.90
2023-03-16T09:29:07.048Z,1.73
2023-03-16T09:32:10.512Z,1.80
2023-03-16T09:41:27.291Z,1.85
2023-03-16T09:50:48.245Z,1.90
2023-03-16T09:53:58.553Z,1.50
2023-03-16T09:57:02.059Z,1.23
2023-03-16T10:00:16.181Z,1.70
2023-03-16T10:03:28.715Z,1.30
2023-03-16T10:06:33.170Z,1.23
2023-03-16T10:09:57.583Z,1.65
2023-03-16T10:13:01.636Z,1.70
2023-03-16T10:16:11.192Z,1.20
2023-03-16T10:19:31.055Z,0.93
2023-03-16T10:22:37.497Z,1.30
2023-03-16T10:25:51.223Z,1.42
2023-03-16T10:28:55.050Z,1.35
2023-03-16T10:32:06.943Z,1.27
2023-03-16T10:35:38.524Z,1.10
2023-03-16T10:38:43.221Z,1.13
2023-03-16T10:41:58.234Z,1.48
2023-03-16T10:45:03.261Z,1.10
2023-03-16T10:48:14.642Z,1.10
2023-03-16T10:51:20.573Z,1.10
2023-03-16T10:54:40.109Z,0.57
2023-03-16T10:57:48.740Z,1.27
2023-03-16T11:00:55.566Z,1.25
2023-03-16T11:03:59.377Z,1.08
2023-03-16T11:07:01.880Z,0.93
2023-03-16T11:10:25.328Z,1.27
2023-03-16T11:13:38.032Z,0.88
2023-03-16T11:16:53.751Z,1.20
2023-03-16T11:20:18.536Z,0.90
2023-03-16T11:23:29.756Z,0.80
2023-03-16T11:26:39.870Z,0.77
2023-03-16T11:30:07.687Z,0.70
2023-03-16T11:33:14.439Z,0.63
2023-03-16T11:36:30.185Z,0.30
2023-03-16T11:39:42.786Z,0.40
2023-03-16T11:43:04.216Z,0.70
2023-03-16T11:46:23.110Z,0.70
2023-03-16T11:49:29.787Z,0.47
2023-03-16T11:52:51.180Z,0.80
2023-03-16T11:56:19.095Z,0.60
2023-03-16T11:59:42.396Z,0.83
2023-03-16T12:03:28.938Z,1.02
2023-03-16T12:06:40.142Z,1.00
2023-03-16T12:10:19.158Z,0.93
2023-03-16T12:14:00.828Z,0.70
2023-03-16T12:17:08.812Z,0.50
2023-03-16T12:20:21.984Z,0.73
2023-03-16T12:23:50.930Z,0.43
2023-03-16T12:26:55.592Z,0.57
2023-03-16T12:30:30.707Z,0.60
2023-03-16T12:34:19.299Z,0.40
2023-03-16T12:37:41.558Z,0.63
2023-03-16T12:41:08.308Z,0.80
2023-03-16T12:44:34.543Z,0.70
2023-03-16T12:48:10.139Z,0.70
2023-03-16T12:51:13.036Z,0.93
2023-03-16T12:54:24.081Z,0.82
2023-03-16T12:57:27.576Z,0.73
2023-03-16T13:00:57.895Z,0.77
2023-03-16T13:04:31.105Z,1.37
2023-03-16T13:07:35.350Z,0.97
2023-03-16T13:10:40.572Z,0.73
2023-03-16T13:13:53.174Z,0.70
2023-03-16T13:17:22.502Z,1.20
2023-03-16T13:20:32.268Z,0.97
2023-03-16T13:24:00.322Z,1.10
2023-03-16T13:27:15.679Z,0.90
2023-03-16T13:30:25.700Z,1.17
2023-03-16T13:33:33.123Z,0.90
2023-03-16T13:36:45.470Z,0.77
2023-03-16T13:39:59.994Z,0.93
2023-03-16T13:43:02.943Z,0.90
2023-03-16T13:46:19.946Z,0.57
2023-03-16T13:49:22.996Z,0.60
2023-03-16T13:52:31.660Z,1.17
2023-03-16T13:55:38.568Z,1.00
2023-03-16T13:58:45.567Z,1.80
2023-03-16T14:01:50.185Z,1.20
2023-03-16T14:04:56.306Z,1.63
2023-03-16T14:08:01.077Z,1.02
2023-03-16T14:11:04.082Z,1.10
2023-03-16T14:14:16.838Z,1.07
2023-03-16T14:17:21.742Z,0.90
2023-03-16T14:20:26.100Z,0.90
2023-03-16T14:23:36.459Z,1.50
2023-03-16T14:26:41.821Z,1.43
2023-03-16T14:29:47.580Z,0.80
2023-03-16T14:32:59.966Z,1.27
2023-03-16T14:36:16.503Z,1.42
2023-03-16T14:39:27.857Z,1.30
2023-03-16T14:42:31.635Z,1.77
2023-03-16T14:45:37.097Z,1.70
2023-03-16T14:48:41.256Z,2.63
2023-03-16T14:51:45.942Z,1.40
2023-03-16T14:54:49.033Z,1.05
2023-03-16T14:57:51.866Z,1.43
2023-03-16T15:00:55.308Z,0.83
2023-03-16T15:03:59.236Z,1.00
2023-03-16T15:07:07.168Z,1.38
2023-03-16T15:10:20.364Z,1.00
2023-03-16T15:13:41.912Z,1.30
2023-03-16T15:16:44.468Z,0.93
2023-03-16T15:19:47.065Z,1.50
2023-03-16T15:22:51.156Z,1.40
2023-03-16T15:25:58.511Z,0.93
2023-03-16T15:29:01.228Z,1.00
2023-03-16T15:32:04.054Z,1.77
2023-03-16T15:35:07.454Z,2.30
2023-03-16T15:38:24.566Z,1.10
2023-03-16T15:41:32.434Z,1.15
2023-03-16T15:44:41.004Z,1.03
2023-03-16T15:47:44.052Z,2.80
2023-03-16T15:50:56.150Z,1.60
2023-03-16T15:54:01.951Z,1.55
2023-03-16T15:57:05.835Z,1.52
2023-03-16T16:00:38.323Z,1.70
2023-03-16T16:03:41.365Z,1.50
2023-03-16T16:06:44.071Z,1.42
2023-03-16T16:09:57.032Z,1.65
2023-03-16T16:13:01.153Z,5.90
2023-03-16T16:16:03.881Z,1.10
2023-03-16T16:19:06.561Z,1.83
2023-03-16T16:22:13.166Z,0.90
2023-03-16T16:25:16.471Z,1.00
2023-03-16T16:28:22.319Z,1.50
2023-03-16T16:31:26.380Z,1.27
2023-03-16T16:34:28.983Z,1.60
2023-03-16T16:37:31.471Z,1.98
2023-03-16T16:40:38.088Z,1.73
2023-03-16T16:43:44.137Z,1.80
2023-03-16T16:46:49.403Z,1.47
2023-03-16T16:49:52.819Z,2.50
2023-03-16T16:52:57.446Z,3.75
2023-03-16T16:56:00.236Z,2.70
2023-03-16T16:59:18.470Z,3.47
2023-03-16T17:02:33.174Z,4.57
2023-03-16T17:05:36.104Z,3.83
2023-03-16T17:08:39.124Z,4.65
2023-03-16T17:11:43.828Z,3.75
2023-03-16T17:14:46.504Z,3.80
2023-03-16T17:17:50.199Z,5.87
2023-03-16T17:20:52.830Z,13.80
2023-03-16T17:23:56.996Z,18.73
2023-03-16T17:27:01.519Z,22.60
2023-03-16T17:30:11.108Z,20.20
2023-03-16T17:33:16.767Z,21.03
2023-03-16T17:36:21.634Z,26.43
2023-03-16T17:39:29.712Z,33.25
2023-03-16T17:42:33.137Z,49.70
2023-03-16T17:45:37.657Z,41.03
2023-03-16T17:48:40.464Z,39.17
2023-03-16T17:51:44.331Z,21.33
2023-03-16T17:54:48.908Z,17.00
2023-03-16T17:57:54.325Z,10.80
2023-03-16T18:00:58.507Z,11.95
2023-03-16T18:04:02.158Z,11.67
2023-03-16T18:07:05.418Z,11.33
2023-03-16T18:10:15.173Z,12.15
2023-03-16T18:13:31.763Z,14.80
2023-03-16T18:16:34.822Z,13.68
2023-03-16T18:19:37.967Z,11.03
2023-03-16T18:22:41.394Z,11.63
2023-03-16T18:25:45.022Z,13.57
2023-03-16T18:28:48.502Z,11.13
2023-03-16T18:31:54.009Z,11.63
2023-03-16T18:34:58.125Z,10.60
2023-03-16T18:38:01.595Z,11.73
2023-03-16T18:41:17.534Z,11.35
2023-03-16T18:44:23.518Z,14.02
2023-03-16T18:47:31.752Z,14.50
2023-03-16T18:50:34.719Z,12.47
2023-03-16T18:53:38.171Z,12.43
2023-03-16T18:56:41.768Z,14.13
2023-03-16T18:59:45.416Z,11.30
2023-03-16T19:02:58.945Z,9.95
2023-03-16T19:06:02.263Z,10.90
2023-03-16T19:09:13.989Z,12.93
2023-03-16T19:12:24.623Z,11.07
2023-03-16T19:15:30.999Z,10.32
2023-03-16T19:18:42.320Z,10.10
2023-03-16T19:21:46.025Z,8.47
2023-03-16T19:24:52.609Z,9.70
2023-03-16T19:27:56.134Z,9.88
2023-03-16T19:30:59.705Z,10.27
2023-03-16T19:34:02.712Z,14.32
2023-03-16T19:37:06.708Z,13.30
2023-03-16T19:40:12.440Z,16.37
2023-03-16T19:43:20.590Z,14.45
2023-03-16T19:46:28.298Z,15.20
2023-03-16T19:49:31.389Z,10.18
2023-03-16T19:52:34.162Z,13.17
2023-03-16T19:55:38.264Z,12.57
2023-03-16T19:58:43.323Z,12.63
2023-03-16T20:01:47.524Z,12.23
2023-03-16T20:04:50.460Z,12.55
2023-03-16T20:07:55.445Z,14.17
2023-03-16T20:11:06.611Z,16.40
2023-03-16T20:14:19.708Z,17.73
2023-03-16T20:17:28.404Z,18.27
2023-03-16T20:20:37.581Z,19.50
2023-03-16T20:23:40.547Z,17.93
2023-03-16T20:26:45.128Z,18.35
2023-03-16T20:29:51.027Z,16.63
2023-03-16T20:32:53.918Z,15.85
2023-03-16T20:35:57.164Z,14.50
2023-03-16T20:38:59.837Z,15.38
2023-03-16T20:42:02.778Z,18.00
2023-03-16T20:45:24.861Z,18.05
2023-03-16T20:48:28.528Z,14.30
2023-03-16T20:51:32.801Z,13.25
2023-03-16T20:54:35.949Z,11.85
2023-03-16T20:57:40.260Z,12.55
2023-03-16T21:00:44.409Z,13.67
2023-03-16T21:03:54.472Z,13.20
2023-03-16T21:06:57.746Z,13.95
2023-03-16T21:10:00.588Z,13.02
2023-03-16T21:13:04.221Z,14.87
2023-03-16T21:16:11.707Z,15.23
2023-03-16T21:19:21.120Z,13.52
2023-03-16T21:22:29.241Z,14.90
2023-03-16T21:25:44.866Z,13.83
2023-03-16T21:28:55.809Z,11.70
2023-03-16T21:31:58.984Z,29.40
2023-03-16T21:35:01.627Z,42.83
2023-03-16T21:38:13.974Z,26.10
2023-03-16T21:41:17.808Z,22.33
2023-03-16T21:44:20.786Z,15.93
2023-03-16T21:47:26.378Z,15.13
2023-03-16T21:50:36.859Z,12.82
2023-03-16T21:53:39.578Z,14.60
2023-03-16T21:56:42.446Z,11.80
2023-03-16T21:59:45.162Z,12.67
2023-03-16T22:02:49.958Z,13.40
2023-03-16T22:05:53.467Z,13.82
2023-03-16T22:08:59.740Z,14.23
2023-03-16T22:12:02.479Z,14.68
2023-03-16T22:15:05.608Z,10.60
2023-03-16T22:18:20.857Z,13.25
2023-03-16T22:21:35.115Z,11.03
2023-03-16T22:24:38.061Z,10.23
2023-03-16T22:27:41.422Z,8.52
2023-03-16T22:30:44.891Z,8.00
2023-03-16T22:33:50.313Z,8.27
2023-03-16T22:36:53.510Z,7.68
2023-03-16T22:39:58.505Z,6.78
2023-03-16T22:43:04.529Z,6.97
2023-03-16T22:46:11.608Z,6.75
2023-03-16T22:49:24.722Z,7.10
2023-03-16T22:52:30.955Z,6.60
2023-03-16T22:55:38.308Z,6.50
2023-03-16T22:58:51.264Z,7.25
2023-03-16T23:01:53.928Z,6.53
2023-03-16T23:04:57.670Z,5.27
2023-03-16T23:08:02.596Z,5.50
2023-03-16T23:11:05.438Z,6.72
2023-03-16T23:14:17.548Z,6.70
2023-03-16T23:17:22.435Z,6.20
2023-03-16T23:20:28.972Z,6.40
2023-03-16T23:23:32.363Z,7.22
2023-03-16T23:26:34.806Z,6.37
2023-03-16T23:29:37.658Z,7.25
2023-03-16T23:32:41.453Z,5.57
2023-03-16T23:35:46.697Z,6.23
2023-03-16T23:38:50.561Z,5.80
2023-03-16T23:41:53.199Z,7.00
2023-03-16T23:44:56.410Z,6.00
2023-03-16T23:48:01.893Z,5.63
2023-03-16T23:51:05.777Z,5.53
2023-03-16T23:54:24.948Z,5.22
2023-03-16T23:57:27.695Z,5.03
